.
WxDataArchive / Data Records for 2007-04-27
2007-04-26 April 2007 2007-04-28

Data Records for Friday, 27 April 2007

Time	Temp	Chill	HIndex	Humid	Dewpt	 Wind 	HiWind	WindDir	Rain 	Barom 
-----	----	-----	------	-----	-----	------	------	-------	-----	----- 
00:00	54.4	54.4	54.4	94	52.7	0	2	248	0.00	29.592 
00:05	54.4	54.4	54.4	94	52.7	1	4	248	0.00	29.587 
00:10	54.4	54.4	54.4	94	52.7	1	2	248	0.00	29.587 
00:15	54.4	54.4	54.4	94	52.7	1	3	248	0.00	29.588 
00:20	54.5	54.5	54.5	94	52.8	1	4	248	0.00	29.586 
00:25	54.5	54.5	54.5	94	52.8	0	2	248	0.00	29.586 
00:30	54.5	54.5	54.5	94	52.8	1	4	248	0.00	29.586 
00:35	54.5	54.5	54.5	94	52.8	1	3	248	0.00	29.586 
00:40	54.7	54.7	54.7	94	53.0	1	5	248	0.00	29.585 
00:45	54.8	54.8	54.8	94	53.1	1	4	248	0.00	29.586 
00:50	54.8	54.8	54.8	94	53.1	1	3	248	0.00	29.587 
00:55	55.0	55.0	55.0	94	53.3	2	5	248	0.00	29.587 
01:00	55.1	55.1	55.1	94	53.4	1	4	248	0.00	29.588 
01:05	55.1	55.1	55.1	94	53.4	2	7	248	0.00	29.587 
01:10	55.1	55.1	55.1	94	53.4	1	4	270	0.00	29.586 
01:15	55.3	55.3	55.3	94	53.6	1	4	248	0.00	29.585 
01:20	55.3	55.3	55.3	94	53.6	2	6	248	0.00	29.585 
01:25	55.4	55.4	55.4	93	53.4	2	5	248	0.00	29.583 
01:30	55.4	55.4	55.4	93	53.4	1	3	248	0.00	29.581 
01:35	55.4	55.4	55.4	93	53.4	2	5	248	0.00	29.580 
01:40	55.6	55.6	55.6	93	53.6	2	6	225	0.00	29.580 
01:45	55.6	55.6	55.6	93	53.6	2	6	248	0.00	29.579 
01:50	55.6	55.6	55.6	93	53.6	2	4	248	0.00	29.580 
01:55	55.7	55.7	55.7	93	53.7	2	6	248	0.00	29.580 
02:00	55.7	55.7	55.7	93	53.7	2	5	248	0.00	29.584 
02:05	55.7	55.7	55.7	93	53.7	2	6	248	0.00	29.585 
02:10	55.9	55.9	55.9	93	53.9	3	5	248	0.00	29.585 
02:15	55.9	55.9	55.9	93	53.9	3	6	248	0.00	29.586 
02:20	56.0	56.0	56.0	93	54.0	3	9	248	0.00	29.585 
02:25	56.0	56.0	56.0	93	54.0	3	6	248	0.00	29.586 
02:30	56.2	56.2	56.2	93	54.2	3	6	248	0.00	29.585 
02:35	56.2	56.2	56.2	93	54.2	2	9	248	0.00	29.585 
02:40	56.3	56.3	56.3	93	54.3	3	10	248	0.00	29.585 
02:45	56.3	56.3	56.3	93	54.3	3	10	248	0.00	29.585 
02:50	56.3	56.3	56.3	92	54.0	3	6	248	0.00	29.586 
02:55	56.3	56.3	56.3	92	54.0	3	5	248	0.00	29.586 
03:00	56.3	56.3	56.3	92	54.0	4	9	248	0.00	29.587 
03:05	56.3	56.3	56.3	92	54.0	3	7	248	0.00	29.586 
03:10	56.3	56.3	56.3	92	54.0	2	5	248	0.00	29.585 
03:15	56.3	56.3	56.3	92	54.0	3	6	248	0.00	29.586 
03:20	56.5	56.5	56.5	92	54.2	3	7	248	0.00	29.588 
03:25	56.5	56.5	56.5	92	54.2	3	7	248	0.00	29.591 
03:30	56.5	56.5	56.5	92	54.2	2	8	248	0.00	29.592 
03:35	56.5	56.5	56.5	92	54.2	3	7	248	0.00	29.596 
03:40	56.5	56.5	56.5	92	54.2	3	8	270	0.00	29.595 
03:45	56.5	56.5	56.5	92	54.2	3	9	248	0.00	29.597 
03:50	56.5	56.5	56.5	91	53.9	3	9	248	0.00	29.598 
03:55	56.3	56.3	56.3	91	53.7	2	6	248	0.00	29.600 
04:00	56.0	56.0	56.0	90	53.1	4	9	248	0.00	29.601 
04:05	55.7	55.7	55.7	91	53.1	4	12	248	0.00	29.603 
04:10	55.3	55.3	55.3	91	52.7	5	13	248	0.00	29.608 
04:15	54.5	54.5	54.5	91	51.9	5	12	270	0.00	29.611 
04:20	54.2	54.2	54.2	92	51.9	3	6	248	0.01	29.615 
04:25	53.9	53.9	53.9	92	51.6	3	7	248	0.00	29.617 
04:30	53.8	53.8	53.8	93	51.8	3	7	248	0.00	29.619 
04:35	53.6	53.6	53.6	93	51.6	3	5	248	0.00	29.619 
04:40	53.5	53.5	53.5	93	51.5	3	7	270	0.00	29.622 
04:45	53.5	53.5	53.5	93	51.5	3	9	270	0.00	29.624 
04:50	53.3	53.3	53.3	94	51.6	4	10	248	0.00	29.626 
04:55	53.2	53.2	53.2	94	51.5	3	9	248	0.00	29.628 
05:00	53.1	53.1	53.1	94	51.4	2	5	248	0.00	29.629 
05:05	52.9	52.9	52.9	94	51.2	4	10	248	0.00	29.634 
05:10	52.8	52.8	52.8	94	51.1	4	14	248	0.00	29.636 
05:15	52.6	52.6	52.6	94	50.9	4	7	248	0.00	29.639 
05:20	52.3	52.3	52.3	94	50.6	5	15	270	0.00	29.647 
05:25	52.2	52.2	52.2	94	50.5	4	10	270	0.00	29.648 
05:30	52.0	52.0	52.0	94	50.3	5	14	248	0.00	29.650 
05:35	51.9	51.9	51.9	93	49.9	6	16	248	0.00	29.652 
05:40	51.7	51.7	51.7	93	49.7	5	15	248	0.00	29.653 
05:45	51.6	51.6	51.6	92	49.4	5	11	270	0.00	29.653 
05:50	51.4	51.4	51.4	90	48.6	3	8	270	0.00	29.655 
05:55	51.3	51.3	51.3	88	47.9	4	10	248	0.00	29.656 
06:00	51.3	51.3	51.3	88	47.9	4	11	270	0.00	29.655 
06:05	51.1	51.1	51.1	87	47.4	4	10	270	0.00	29.659 
06:10	51.0	51.0	51.0	87	47.3	3	7	270	0.00	29.660 
06:15	51.0	51.0	51.0	86	47.0	3	6	270	0.00	29.662 
06:20	50.8	50.8	50.8	85	46.5	4	9	270	0.00	29.663 
06:25	50.7	50.7	50.7	84	46.0	4	11	248	0.00	29.670 
06:30	50.7	50.7	50.7	83	45.7	4	12	248	0.00	29.672 
06:35	50.7	50.7	50.7	84	46.0	5	9	270	0.00	29.673 
06:40	50.5	50.5	50.5	84	45.8	3	10	270	0.00	29.675 
06:45	50.5	50.5	50.5	85	46.2	3	7	270	0.00	29.677 
06:50	50.5	50.5	50.5	85	46.2	4	11	270	0.00	29.681 
06:55	50.5	50.5	50.5	85	46.2	4	11	248	0.00	29.683 
07:00	50.5	50.5	50.5	85	46.2	3	10	248	0.00	29.686 
07:05	50.5	50.5	50.5	86	46.5	3	7	270	0.00	29.686 
07:10	50.5	50.5	50.5	86	46.5	3	9	270	0.00	29.688 
07:15	50.7	50.7	50.7	86	46.7	2	6	248	0.00	29.689 
07:20	50.5	50.5	50.5	85	46.2	4	9	248	0.00	29.689 
07:25	50.5	50.5	50.5	85	46.2	4	11	270	0.00	29.691 
07:30	50.4	50.4	50.4	86	46.4	4	10	270	0.00	29.695 
07:35	50.2	50.2	50.2	86	46.2	5	13	270	0.00	29.696 
07:40	50.2	50.2	50.2	87	46.5	4	9	270	0.00	29.698 
07:45	50.4	50.4	50.4	86	46.4	3	9	248	0.00	29.699 
07:50	50.7	50.7	50.7	85	46.4	3	7	248	0.00	29.698 
07:55	51.0	51.0	51.0	84	46.3	4	11	270	0.00	29.699 
08:00	51.1	51.1	51.1	84	46.4	4	10	248	0.00	29.701 
08:05	51.3	51.3	51.3	83	46.3	4	8	248	0.00	29.704 
08:10	51.7	51.7	51.7	82	46.4	4	10	248	0.00	29.704 
08:15	52.3	52.3	52.3	80	46.3	4	12	270	0.00	29.704 
08:20	52.2	52.2	52.2	78	45.5	5	13	270	0.00	29.705 
08:25	52.2	52.2	52.2	77	45.2	5	13	270	0.00	29.704 
08:30	51.7	51.7	51.7	77	44.7	5	12	270	0.00	29.706 
08:35	51.3	51.3	51.3	78	44.7	5	14	270	0.00	29.705 
08:40	51.0	51.0	51.0	78	44.4	5	15	270	0.00	29.706 
08:45	51.0	51.0	51.0	79	44.7	4	8	270	0.00	29.707 
08:50	51.1	51.1	51.1	79	44.8	4	10	270	0.00	29.708 
08:55	51.3	51.3	51.3	80	45.3	4	9	270	0.00	29.710 
09:00	51.1	51.1	51.1	80	45.1	5	15	248	0.00	29.712 
09:05	51.3	51.3	51.3	79	45.0	4	12	270	0.00	29.716 
09:10	51.4	51.4	51.4	78	44.8	5	11	270	0.00	29.715 
09:15	51.9	51.9	51.9	77	44.9	4	12	270	0.00	29.716 
09:20	51.6	51.6	51.6	78	45.0	4	7	270	0.00	29.713 
09:25	51.4	51.4	51.4	78	44.8	5	13	270	0.00	29.720 
09:30	51.6	51.6	51.6	76	44.3	5	13	270	0.00	29.720 
09:35	51.6	51.6	51.6	75	43.9	5	13	270	0.00	29.719 
09:40	51.4	51.4	51.4	76	44.1	4	10	270	0.00	29.720 
09:45	51.7	51.7	51.7	77	44.7	3	10	270	0.00	29.718 
09:50	52.0	52.0	52.0	74	44.0	5	11	248	0.00	29.720 
09:55	52.0	52.0	52.0	75	44.3	3	9	270	0.00	29.719 
10:00	52.0	52.0	52.0	75	44.3	3	13	248	0.00	29.721 
10:05	51.9	51.9	51.9	74	43.9	5	13	270	0.00	29.725 
10:10	51.9	51.9	51.9	75	44.2	4	9	270	0.00	29.727 
10:15	51.9	51.9	51.9	74	43.9	4	10	270	0.00	29.728 
10:20	51.7	51.7	51.7	74	43.7	3	7	270	0.00	29.733 
10:25	51.4	51.4	51.4	73	43.0	4	11	270	0.00	29.738 
10:30	51.3	51.3	51.3	73	42.9	4	10	270	0.00	29.739 
10:35	51.1	51.1	51.1	74	43.1	3	7	270	0.00	29.740 
10:40	51.1	51.1	51.1	74	43.1	3	5	270	0.00	29.741 
10:45	51.1	51.1	51.1	74	43.1	3	7	270	0.00	29.741 
10:50	51.0	51.0	51.0	74	43.0	4	12	248	0.00	29.744 
10:55	50.8	50.8	50.8	74	42.8	4	11	270	0.00	29.749 
11:00	51.0	51.0	51.0	74	43.0	4	9	270	0.00	29.751 
11:05	51.1	51.1	51.1	74	43.1	4	10	248	0.00	29.755 
11:10	51.0	51.0	51.0	75	43.4	4	12	270	0.00	29.755 
11:15	50.8	50.8	50.8	76	43.5	3	10	248	0.00	29.755 
11:20	51.0	51.0	51.0	76	43.7	3	6	270	0.00	29.755 
11:25	51.0	51.0	51.0	76	43.7	2	5	248	0.00	29.756 
11:30	51.0	51.0	51.0	77	44.0	3	12	270	0.00	29.756 
11:35	50.7	50.7	50.7	77	43.8	4	6	270	0.00	29.756 
11:40	50.5	50.5	50.5	78	43.9	4	7	248	0.00	29.757 
11:45	50.5	50.5	50.5	78	43.9	3	8	270	0.00	29.757 
11:50	50.7	50.7	50.7	78	44.1	4	10	270	0.00	29.757 
11:55	50.8	50.8	50.8	77	43.9	4	10	270	0.00	29.757 
12:00	50.8	50.8	50.8	78	44.2	5	11	248	0.00	29.759 
12:05	50.7	50.7	50.7	78	44.1	3	6	270	0.00	29.762 
12:10	50.5	50.5	50.5	79	44.2	3	5	248	0.00	29.762 
12:15	50.5	50.5	50.5	78	43.9	4	12	270	0.00	29.762 
12:20	50.4	50.4	50.4	79	44.1	3	10	270	0.00	29.767 
12:25	50.2	50.2	50.2	79	43.9	6	14	248	0.00	29.770 
12:30	50.2	50.2	50.2	80	44.3	5	9	270	0.00	29.771 
12:35	50.4	50.4	50.4	80	44.5	4	11	248	0.00	29.770 
12:40	50.7	50.7	50.7	80	44.8	3	6	270	0.00	29.768 
12:45	51.3	51.3	51.3	79	45.0	3	9	292	0.00	29.766 
12:50	52.3	52.3	52.3	77	45.3	2	5	270	0.00	29.764 
12:55	52.5	52.5	52.5	74	44.5	2	6	270	0.00	29.763 
13:00	51.9	51.9	51.9	74	43.9	3	8	248	0.00	29.767 
13:05	51.4	51.4	51.4	76	44.1	3	13	248	0.00	29.769 
13:10	51.0	51.0	51.0	77	44.0	3	7	270	0.00	29.769 
13:15	51.0	51.0	51.0	79	44.7	2	4	248	0.00	29.769 
13:20	51.0	51.0	51.0	78	44.4	3	6	270	0.00	29.769 
13:25	51.1	51.1	51.1	78	44.5	3	6	270	0.00	29.769 
13:30	51.0	51.0	51.0	78	44.4	3	9	270	0.00	29.769 
13:35	50.8	50.8	50.8	78	44.2	4	7	270	0.00	29.770 
13:40	50.7	50.7	50.7	78	44.1	5	10	248	0.00	29.770 
13:45	50.8	50.8	50.8	78	44.2	5	12	248	0.00	29.771 
13:50	50.7	50.7	50.7	78	44.1	4	10	270	0.00	29.771 
13:55	50.7	50.7	50.7	78	44.1	4	11	248	0.00	29.771 
14:00	50.4	50.4	50.4	79	44.1	5	11	248	0.00	29.774 
14:05	50.4	50.4	50.4	80	44.5	4	10	270	0.00	29.773 
14:10	50.4	50.4	50.4	80	44.5	3	10	270	0.00	29.772 
14:15	50.5	50.5	50.5	79	44.2	4	11	270	0.00	29.772 
14:20	50.7	50.7	50.7	79	44.4	3	9	270	0.00	29.772 
14:25	50.7	50.7	50.7	78	44.1	3	11	270	0.00	29.771 
14:30	50.7	50.7	50.7	79	44.4	3	9	248	0.00	29.771 
14:35	50.7	50.7	50.7	79	44.4	4	9	270	0.00	29.771 
14:40	51.0	51.0	51.0	79	44.7	2	7	248	0.00	29.771 
14:45	51.1	51.1	51.1	78	44.5	4	10	248	0.00	29.773 
14:50	51.1	51.1	51.1	78	44.5	3	6	248	0.00	29.772 
14:55	51.1	51.1	51.1	77	44.1	3	8	248	0.00	29.773 
15:00	51.0	51.0	51.0	78	44.4	2	5	248	0.00	29.775 
15:05	50.8	50.8	50.8	78	44.2	2	5	248	0.00	29.774 
15:10	50.7	50.7	50.7	78	44.1	3	9	270	0.00	29.774 
15:15	50.5	50.5	50.5	79	44.2	4	10	270	0.00	29.777 
15:20	50.4	50.4	50.4	79	44.1	3	9	248	0.00	29.779 
15:25	50.5	50.5	50.5	79	44.2	3	9	248	0.00	29.781 
15:30	50.4	50.4	50.4	79	44.1	4	9	270	0.00	29.784 
15:35	50.4	50.4	50.4	79	44.1	4	9	248	0.00	29.785 
15:40	50.4	50.4	50.4	79	44.1	3	7	248	0.00	29.785 
15:45	50.4	50.4	50.4	80	44.5	4	12	248	0.00	29.786 
15:50	50.4	50.4	50.4	80	44.5	4	11	248	0.00	29.786 
15:55	50.4	50.4	50.4	80	44.5	3	7	248	0.00	29.787 
16:00	50.2	50.2	50.2	81	44.6	3	8	248	0.00	29.786 
16:05	50.2	50.2	50.2	81	44.6	3	7	248	0.00	29.789 
16:10	50.1	50.1	50.1	81	44.5	3	9	248	0.00	29.790 
16:15	50.1	50.1	50.1	81	44.5	2	5	248	0.00	29.790 
16:20	50.1	50.1	50.1	81	44.5	2	6	248	0.00	29.792 
16:25	50.1	50.1	50.1	81	44.5	3	10	270	0.00	29.794 
16:30	50.1	50.1	50.1	81	44.5	2	9	248	0.00	29.793 
16:35	49.9	49.9	49.9	82	44.6	3	6	270	0.00	29.795 
16:40	49.9	48.8	49.9	82	44.6	4	10	248	0.00	29.797 
16:45	49.8	49.8	49.8	82	44.5	3	5	270	0.00	29.795 
16:50	49.8	49.8	49.8	82	44.5	3	6	248	0.00	29.797 
16:55	49.8	49.8	49.8	83	44.8	2	6	248	0.00	29.800 
17:00	49.8	49.8	49.8	83	44.8	2	6	248	0.00	29.801 
17:05	49.6	49.6	49.6	83	44.7	3	9	248	0.00	29.804 
17:10	49.6	49.6	49.6	82	44.3	3	8	248	0.00	29.805 
17:15	49.6	49.6	49.6	83	44.7	3	9	248	0.00	29.806 
17:20	49.6	49.6	49.6	83	44.7	3	10	248	0.00	29.807 
17:25	49.8	49.8	49.8	83	44.8	2	5	270	0.00	29.807 
17:30	49.8	49.8	49.8	83	44.8	2	9	248	0.00	29.807 
17:35	49.8	49.8	49.8	83	44.8	3	6	248	0.00	29.809 
17:40	49.8	49.8	49.8	83	44.8	3	6	248	0.00	29.811 
17:45	49.8	49.8	49.8	83	44.8	3	6	270	0.00	29.809 
17:50	49.6	49.6	49.6	83	44.7	2	5	248	0.00	29.811 
17:55	49.6	49.6	49.6	84	45.0	2	7	248	0.00	29.812 
18:00	49.4	49.4	49.4	85	45.1	1	3	248	0.00	29.816 
18:05	49.2	49.2	49.2	86	45.2	2	5	248	0.00	29.819 
18:10	49.2	49.2	49.2	86	45.2	1	4	248	0.00	29.822 
18:15	49.2	49.2	49.2	85	44.9	2	5	270	0.00	29.822 
18:20	49.2	49.2	49.2	85	44.9	1	4	248	0.00	29.824 
18:25	49.2	49.2	49.2	85	44.9	1	4	248	0.00	29.826 
18:30	49.2	49.2	49.2	85	44.9	1	4	248	0.00	29.828 
18:35	49.2	49.2	49.2	84	44.6	2	5	270	0.00	29.830 
18:40	49.1	49.1	49.1	85	44.8	1	4	248	0.00	29.834 
18:45	48.9	48.9	48.9	86	44.9	2	6	248	0.00	29.835 
18:50	48.8	48.8	48.8	87	45.1	1	3	248	0.00	29.836 
18:55	48.6	48.6	48.6	87	44.9	2	5	225	0.00	29.837 
19:00	48.5	48.5	48.5	88	45.1	1	3	248	0.00	29.838 
19:05	48.5	48.5	48.5	88	45.1	1	3	248	0.00	29.838 
19:10	48.5	48.5	48.5	88	45.1	1	4	248	0.00	29.841 
19:15	48.5	48.5	48.5	88	45.1	0	1	248	0.00	29.842 
19:20	48.5	48.5	48.5	88	45.1	1	3	248	0.00	29.843 
19:25	48.5	48.5	48.5	87	44.8	2	4	248	0.00	29.846 
19:30	48.5	48.5	48.5	87	44.8	1	3	248	0.00	29.845 
19:35	48.5	48.5	48.5	87	44.8	1	3	292	0.00	29.846 
19:40	48.5	48.5	48.5	87	44.8	0	3	270	0.00	29.845 
19:45	48.5	48.5	48.5	87	44.8	0	1	248	0.00	29.842 
19:50	48.5	48.5	48.5	87	44.8	1	5	248	0.00	29.844 
19:55	48.5	48.5	48.5	87	44.8	0	2	225	0.00	29.846 
20:00	48.5	48.5	48.5	87	44.8	0	2	225	0.00	29.846 
20:05	48.5	48.5	48.5	87	44.8	0	2	225	0.00	29.846 
20:10	48.5	48.5	48.5	87	44.8	0	2	225	0.00	29.847 
20:15	48.5	48.5	48.5	88	45.1	0	2	248	0.00	29.848 
20:20	48.5	48.5	48.5	88	45.1	0	2	248	0.00	29.848 
20:25	48.5	48.5	48.5	88	45.1	1	3	248	0.00	29.848 
20:30	48.5	48.5	48.5	88	45.1	2	5	225	0.00	29.847 
20:35	48.3	48.3	48.3	88	44.9	1	4	248	0.00	29.851 
20:40	48.3	48.3	48.3	88	44.9	2	4	248	0.00	29.852 
20:45	48.3	48.3	48.3	88	44.9	1	4	248	0.00	29.854 
20:50	48.3	48.3	48.3	88	44.9	1	6	248	0.00	29.855 
20:55	48.3	48.3	48.3	88	44.9	1	3	248	0.00	29.855 
21:00	48.3	48.3	48.3	88	44.9	1	3	248	0.00	29.855 
21:05	48.5	48.5	48.5	88	45.1	1	4	248	0.00	29.853 
21:10	48.5	48.5	48.5	88	45.1	1	3	248	0.00	29.853 
21:15	48.5	48.5	48.5	87	44.8	1	5	248	0.00	29.853 
21:20	48.5	48.5	48.5	88	45.1	0	4	225	0.00	29.853 
21:25	48.5	48.5	48.5	87	44.8	1	3	225	0.00	29.854 
21:30	48.5	48.5	48.5	87	44.8	1	2	225	0.00	29.854 
21:35	48.6	48.6	48.6	87	44.9	1	2	225	0.00	29.853 
21:40	48.6	48.6	48.6	87	44.9	0	3	225	0.00	29.854 
21:45	48.6	48.6	48.6	87	44.9	1	3	248	0.00	29.853 
21:50	48.8	48.8	48.8	87	45.1	1	4	248	0.00	29.853 
21:55	48.8	48.8	48.8	87	45.1	1	3	225	0.00	29.853 
22:00	48.8	48.8	48.8	87	45.1	2	5	248	0.00	29.853 
22:05	48.9	48.9	48.9	87	45.2	1	4	248	0.00	29.853 
22:10	48.9	48.9	48.9	87	45.2	1	3	248	0.00	29.852 
22:15	48.9	48.9	48.9	86	44.9	1	4	248	0.00	29.852 
22:20	48.9	48.9	48.9	86	44.9	0	3	225	0.00	29.852 
22:25	48.9	48.9	48.9	86	44.9	1	4	248	0.00	29.852 
22:30	49.1	49.1	49.1	86	45.1	1	3	248	0.00	29.853 
22:35	49.1	49.1	49.1	86	45.1	1	3	248	0.00	29.854 
22:40	49.1	49.1	49.1	87	45.4	0	4	248	0.00	29.854 
22:45	49.1	49.1	49.1	87	45.4	1	5	248	0.00	29.854 
22:50	48.9	48.9	48.9	88	45.5	1	4	225	0.00	29.855 
22:55	48.9	48.9	48.9	88	45.5	1	3	270	0.00	29.855 
23:00	48.8	48.8	48.8	88	45.4	1	3	248	0.00	29.855 
23:05	48.8	48.8	48.8	89	45.7	1	3	248	0.00	29.856 
23:10	48.8	48.8	48.8	89	45.7	1	4	248	0.00	29.857 
23:15	48.8	48.8	48.8	89	45.7	1	4	248	0.00	29.857 
23:20	48.8	48.8	48.8	89	45.7	2	5	248	0.00	29.857 
23:25	48.8	48.8	48.8	89	45.7	2	5	248	0.00	29.857 
23:30	48.8	48.8	48.8	89	45.7	1	2	248	0.00	29.860 
23:35	48.8	48.8	48.8	89	45.7	1	2	248	0.00	29.861 
23:40	48.8	48.8	48.8	89	45.7	1	4	248	0.00	29.859 
23:45	48.6	48.6	48.6	90	45.8	1	4	248	0.00	29.857 
23:50	48.6	48.6	48.6	90	45.8	1	3	248	0.00	29.857 
23:55	48.5	48.5	48.5	90	45.7	1	2	248	0.00	29.856 

CoCoRaHS
IN-AL-39
A2 Web Hosting
Creative Commons License
GoDaddy
Look for:

loaded 2017-10-19 12:40:09 • last modified 2010-11-18 10:43:29
Privacy PolicyDisclaimer
• wx.awcolley.com is powered by PmWiki v.2002016 •
• all content (unless otherwise noted) © 2017 A W Colley